world map with EPR marked

EPR - Airport

This information may not be accurate or current and is not valid for navigation or flight planning. No warranty of fitness for any purpose is made or implied.

flag of Western Australiaflag of Australia

Donate via PayPal

Additional information is available on the NEW Great Circle Mapper

Location
City:  Esperance, Western Australia, Australia
ICAO / IATA:YESP / EPR

Details
Type:Airport (Aerodrome, Airfield)
Latitude:33°41'04"S (-33.684443)
Longitude:121°49'22"E (121.822778)
Datum:WGS 1984
Elevation:470 ft (143 m)
Runways:2
Longest:4921 × 98 ft (1500 × 30 m)

Time
Timezone:UTC+8 (DST+10)
Local Time:

Weather
METAR:YESP  041400Z AUTO 10010KT 9999 // SCT024 SCT031 16/12 Q1021

Related Locations
Nearby:
Farthest:BDA: 12056 mi / 19401 km
Bermuda (St. George) [L.F. Wade Intl (Bermuda Intl, Kindley Field)], BM

Find:

   beyond  
but within

Other Information
Maps:
Sources:

  


 


Great Circle Mapper   Great Circle Mapper
Great Circle Mapper FAQ   Great Circle Mapper FAQ
  Karl's Home Page
KLSē   KLSē Home
   GC on Facebook
Airlines of the World   Airlines of the World
Donate via PayPal


Copyright © 2004-2019, Karl L. Swartz. All rights reserved.
All trademarks mentioned herein belong to their respective owners.

Please see credits for attribution and copyright information.

Karl Swartz <karl@kls2.com>
  Powered by FreeBSD
Valid HTML 4.01!
Labeled with ICRA
hCard Microformat
Geo Microformat